KIAB/IAB METAR and TAF weather

Enter ICAO airport designator
Station Type Date Time Source
KIAB METAR 2022/01/23 10:56 UTC NOAA

KIAB 231056Z AUTO 00000KT 10SM CLR M01/M07 A3011 RMK AO2 SLP207 T10061070 $


Station Type Date Time Source
KIAB Decoded METAR 2022/01/23 10:56 UTC NOAA

McConnell Air Force Base, KS, United States (KIAB) 37-37N 097-16W
Jan 23, 2022 - 05:56 AM EST / 2022.01.23 1056 UTC
Wind: Calm:0
Visibility: 10 mile(s):0
Sky conditions: clear
Temperature: 30.9 F (-0.6 C)
Dew Point: 19.4 F (-7.0 C)
Relative Humidity: 61%
Pressure (altimeter): 30.11 in. Hg (1019 hPa)
ob: KIAB 231056Z AUTO 00000KT 10SM CLR M01/M07 A3011 RMK AO2 SLP207 T10061070
cycle: 11

Station Type Date Time Source
KIAB TAF 2022/01/22 18:24 UTC NOAA

TAF
AMD KIAB 221809Z 2218/2319 VRB06KT 9999 FEW035 SCT050 BKN130 QNH3015INS
BECMG 2317/2318 34015G20KT 9999 SKC 510063 QNH3021INS TX08/2220Z TNM02/2310Z LAST NO
AMDS AFT 2218 NEXT 2401

Example: see airport list